KBYG/BYG METAR and TAF weather

Enter ICAO airport designator
Station Type Date Time Source
KBYG METAR 2020/09/25 04:53 UTC NOAA

KBYG 250453Z AUTO 02005KT 9SM CLR 14/03 A2996 RMK AO2 SLP089 T01390033


Station Type Date Time Source
KBYG Decoded METAR 2020/09/25 04:53 UTC NOAA

BUFFALO JOHNSON COUNTY AIRPORT , WY, United States (KBYG) 44-23N 106-43W 1497M
Sep 25, 2020 - 12:53 AM EDT / 2020.09.25 0453 UTC
Wind: from the NNE (020 degrees) at 6 MPH (5 KT):0
Visibility: 9 mile(s):0
Sky conditions: clear
Temperature: 57.0 F (13.9 C)
Dew Point: 37.9 F (3.3 C)
Relative Humidity: 48%
Pressure (altimeter): 29.96 in. Hg (1014 hPa)
ob: KBYG 250453Z AUTO 02005KT 9SM CLR 14/03 A2996 RMK AO2 SLP089 T01390033
cycle: 5

Station Type Date Time Source
KBYG TAF UTC NOAA

Error!

Example: see airport list